createdAt,value
2022-09-23T00:02:13.809Z,10.03
2022-09-23T00:04:43.243Z,10.01
2022-09-23T00:07:11.549Z,9.97
2022-09-23T00:09:40.134Z,9.95
2022-09-23T00:12:10.484Z,9.96
2022-09-23T00:14:39.355Z,9.96
2022-09-23T00:17:07.982Z,9.97
2022-09-23T00:19:38.578Z,9.98
2022-09-23T00:22:07.564Z,9.97
2022-09-23T00:24:35.939Z,9.97
2022-09-23T00:27:04.525Z,9.98
2022-09-23T00:29:32.802Z,10.00
2022-09-23T00:32:01.566Z,10.00
2022-09-23T00:34:30.075Z,10.01
2022-09-23T00:36:58.555Z,10.02
2022-09-23T00:39:27.119Z,10.00
2022-09-23T00:41:56.338Z,9.94
2022-09-23T00:44:42.408Z,9.88
2022-09-23T00:47:15.824Z,9.78
2022-09-23T00:49:45.924Z,9.70
2022-09-23T00:52:17.744Z,9.63
2022-09-23T00:54:47.319Z,9.57
2022-09-23T00:57:16.627Z,9.53
2022-09-23T00:59:45.103Z,9.53
2022-09-23T01:02:14.736Z,9.52
2022-09-23T01:04:43.503Z,9.50
2022-09-23T01:07:11.882Z,9.47
2022-09-23T01:09:40.473Z,9.43
2022-09-23T01:12:24.717Z,9.39
2022-09-23T01:15:00.672Z,9.31
2022-09-23T01:17:47.894Z,9.24
2022-09-23T01:20:16.171Z,9.17
2022-09-23T01:22:55.317Z,9.14
2022-09-23T01:25:42.734Z,9.09
2022-09-23T01:28:29.847Z,9.04
2022-09-23T01:31:06.063Z,8.98
2022-09-23T01:33:46.983Z,8.93
2022-09-23T01:36:15.890Z,8.88
2022-09-23T01:38:49.144Z,8.83
2022-09-23T01:41:29.121Z,8.80
2022-09-23T01:43:57.711Z,8.80
2022-09-23T01:46:29.976Z,8.79
2022-09-23T01:49:08.600Z,8.80
2022-09-23T01:51:44.347Z,8.79
2022-09-23T01:54:20.408Z,8.79
2022-09-23T01:56:58.003Z,8.77
2022-09-23T01:59:34.676Z,8.75
2022-09-23T02:02:06.090Z,8.73
2022-09-23T02:04:47.512Z,8.72
2022-09-23T02:07:28.691Z,8.73
2022-09-23T02:10:15.913Z,8.74
2022-09-23T02:12:47.214Z,8.75
2022-09-23T02:15:21.172Z,8.78
2022-09-23T02:17:52.727Z,8.80
2022-09-23T02:20:28.672Z,8.83
2022-09-23T02:23:02.052Z,8.86
2022-09-23T02:25:35.888Z,8.88
2022-09-23T02:28:12.971Z,8.87
2022-09-23T02:30:45.652Z,8.87
2022-09-23T02:33:21.402Z,8.87
2022-09-23T02:35:54.287Z,8.88
2022-09-23T02:38:26.559Z,8.90
2022-09-23T02:40:59.035Z,8.90
2022-09-23T02:43:35.811Z,8.89
2022-09-23T02:46:05.337Z,8.85
2022-09-23T02:48:36.153Z,8.81
2022-09-23T02:51:04.841Z,8.78
2022-09-23T02:53:36.906Z,8.75
2022-09-23T02:56:15.608Z,8.74
2022-09-23T02:58:44.314Z,8.70
2022-09-23T03:01:39.590Z,8.69
2022-09-23T03:04:08.108Z,8.65
2022-09-23T03:06:46.319Z,8.67
2022-09-23T03:09:30.976Z,8.68
2022-09-23T03:12:08.780Z,8.71
2022-09-23T03:14:44.670Z,8.74
2022-09-23T03:17:20.565Z,8.80
2022-09-23T03:19:51.428Z,8.86
2022-09-23T03:22:24.110Z,8.90
2022-09-23T03:24:54.307Z,8.93
2022-09-23T03:27:25.936Z,8.95
2022-09-23T03:29:55.498Z,8.98
2022-09-23T03:32:25.103Z,9.00
2022-09-23T03:34:55.633Z,9.03
2022-09-23T03:37:40.213Z,9.06
2022-09-23T03:40:27.453Z,9.08
2022-09-23T03:42:57.776Z,9.10
2022-09-23T03:45:28.007Z,9.10
2022-09-23T03:47:57.057Z,9.08
2022-09-23T03:50:26.051Z,9.03
2022-09-23T03:52:54.439Z,8.91
2022-09-23T03:55:23.125Z,8.75
2022-09-23T03:57:51.599Z,8.63
2022-09-23T04:00:19.877Z,8.54
2022-09-23T04:02:50.149Z,8.48
2022-09-23T04:05:18.784Z,8.43
2022-09-23T04:07:48.320Z,8.39
2022-09-23T04:10:16.773Z,8.37
2022-09-23T04:12:45.666Z,8.36
2022-09-23T04:15:13.840Z,8.36
2022-09-23T04:17:42.364Z,8.38
2022-09-23T04:20:10.906Z,8.39
2022-09-23T04:22:39.287Z,8.39
2022-09-23T04:25:08.177Z,8.41
2022-09-23T04:27:37.916Z,8.44
2022-09-23T04:30:07.310Z,8.48
2022-09-23T04:32:36.897Z,8.52
2022-09-23T04:35:06.203Z,8.58
2022-09-23T04:37:34.683Z,8.63
2022-09-23T04:40:03.679Z,8.68
2022-09-23T04:42:32.363Z,8.73
2022-09-23T04:45:00.741Z,8.76
2022-09-23T04:47:29.327Z,8.83
2022-09-23T04:49:59.803Z,8.90
2022-09-23T04:52:30.488Z,8.97
2022-09-23T04:54:58.971Z,9.05
2022-09-23T04:57:27.351Z,9.13
2022-09-23T04:59:57.755Z,9.20
2022-09-23T05:02:26.498Z,9.26
2022-09-23T05:04:55.765Z,9.31
2022-09-23T05:07:24.862Z,9.37
2022-09-23T05:09:53.281Z,9.43
2022-09-23T05:12:21.504Z,9.53
2022-09-23T05:14:50.205Z,9.64
2022-09-23T05:17:18.687Z,9.76
2022-09-23T05:19:46.967Z,9.87
2022-09-23T05:22:15.552Z,10.00
2022-09-23T05:24:44.134Z,10.10
2022-09-23T05:27:12.310Z,10.18
2022-09-23T05:29:41.508Z,10.24
2022-09-23T05:32:10.193Z,10.32
2022-09-23T05:34:39.189Z,10.38
2022-09-23T05:37:07.772Z,10.44
2022-09-23T05:39:36.665Z,10.51
2022-09-23T05:42:05.248Z,10.59
2022-09-23T05:44:33.629Z,10.71
2022-09-23T05:47:03.228Z,10.87
2022-09-23T05:49:55.292Z,11.05
2022-09-23T05:52:20.580Z,11.22
2022-09-23T05:54:50.187Z,11.39
2022-09-23T05:57:19.285Z,11.52
2022-09-23T05:59:48.249Z,11.65
2022-09-23T06:02:16.998Z,11.78
2022-09-23T06:04:45.755Z,11.91
2022-09-23T06:07:14.338Z,12.02
2022-09-23T06:09:42.824Z,12.13
2022-09-23T06:12:11.508Z,12.24
2022-09-23T06:14:39.987Z,12.33
2022-09-23T06:17:08.471Z,12.39
2022-09-23T06:19:36.954Z,12.46
2022-09-23T06:22:05.624Z,12.54
2022-09-23T06:24:34.022Z,12.57
2022-09-23T06:27:02.810Z,12.62
2022-09-23T06:29:32.418Z,12.64
2022-09-23T06:32:01.092Z,12.64
2022-09-23T06:34:30.391Z,12.65
2022-09-23T06:37:07.847Z,12.69
2022-09-23T06:39:40.887Z,12.73
2022-09-23T06:42:09.575Z,12.77
2022-09-23T06:44:37.850Z,12.88
2022-09-23T06:47:06.541Z,12.94
2022-09-23T06:49:35.841Z,12.97
2022-09-23T06:52:05.447Z,12.98
2022-09-23T06:54:34.135Z,12.98
2022-09-23T06:57:02.518Z,13.00
2022-09-23T06:59:30.795Z,13.01
2022-09-23T07:01:59.692Z,13.14
2022-09-23T07:04:29.452Z,13.31
2022-09-23T07:06:58.010Z,13.40
2022-09-23T07:09:26.452Z,13.42
2022-09-23T07:11:55.047Z,13.41
2022-09-23T07:14:24.488Z,13.33
2022-09-23T07:16:54.120Z,13.29
2022-09-23T07:19:22.748Z,13.33
2022-09-23T07:21:51.132Z,13.42
2022-09-23T07:24:19.761Z,13.54
2022-09-23T07:26:49.404Z,13.62
2022-09-23T07:29:17.905Z,13.74
2022-09-23T07:31:46.322Z,13.83
2022-09-23T07:34:14.971Z,13.91
2022-09-23T07:36:43.453Z,13.95
2022-09-23T07:39:12.669Z,13.98
2022-09-23T07:41:41.986Z,14.09
2022-09-23T07:44:11.461Z,14.23
2022-09-23T07:46:40.510Z,14.55
2022-09-23T07:49:09.143Z,14.97
2022-09-23T07:51:38.650Z,15.19
2022-09-23T07:54:10.399Z,15.22
2022-09-23T07:56:39.636Z,15.34
2022-09-23T07:59:09.395Z,15.33
2022-09-23T08:01:40.353Z,15.44
2022-09-23T08:04:11.301Z,15.76
2022-09-23T08:06:43.717Z,16.04
2022-09-23T08:09:12.261Z,16.34
2022-09-23T08:11:42.256Z,16.57
2022-09-23T08:14:11.550Z,16.99
2022-09-23T08:16:40.880Z,17.53
2022-09-23T08:19:09.366Z,17.91
2022-09-23T08:21:39.581Z,18.30
2022-09-23T08:24:09.851Z,18.56
2022-09-23T08:26:38.295Z,18.62
2022-09-23T08:29:10.064Z,18.88
2022-09-23T08:31:38.390Z,19.11
2022-09-23T08:34:08.188Z,19.19
2022-09-23T08:36:36.729Z,19.35
2022-09-23T08:39:05.826Z,19.44
2022-09-23T08:41:44.651Z,19.76
2022-09-23T08:44:25.523Z,19.74
2022-09-23T08:46:54.621Z,19.45
2022-09-23T08:49:26.612Z,19.25
2022-09-23T08:51:55.477Z,19.19
2022-09-23T08:54:26.693Z,19.32
2022-09-23T08:56:58.656Z,19.75
2022-09-23T08:59:31.591Z,20.41
2022-09-23T09:02:01.593Z,20.66
2022-09-23T09:04:38.165Z,20.66
2022-09-23T09:07:35.225Z,20.32
2022-09-23T09:10:03.339Z,19.99
2022-09-23T09:12:34.847Z,19.84
2022-09-23T09:15:11.213Z,19.88
2022-09-23T09:17:40.208Z,20.05
2022-09-23T09:20:28.863Z,20.02
2022-09-23T09:22:58.155Z,19.77
2022-09-23T09:25:35.863Z,19.86
2022-09-23T09:28:11.821Z,20.37
2022-09-23T09:30:41.075Z,20.73
2022-09-23T09:33:17.900Z,20.68
2022-09-23T09:36:09.231Z,20.68
2022-09-23T09:38:38.215Z,20.81
2022-09-23T09:41:18.002Z,20.48
2022-09-23T09:43:49.352Z,19.93
2022-09-23T09:46:29.700Z,19.54
2022-09-23T09:49:03.684Z,19.16
2022-09-23T09:51:32.478Z,19.08
2022-09-23T09:54:16.875Z,19.22
2022-09-23T09:56:45.561Z,19.50
2022-09-23T09:59:21.252Z,19.80
2022-09-23T10:01:49.940Z,19.59
2022-09-23T10:04:34.093Z,19.24
2022-09-23T10:07:12.647Z,19.29
2022-09-23T10:09:47.707Z,19.44
2022-09-23T10:12:23.142Z,19.33
2022-09-23T10:14:56.238Z,19.15
2022-09-23T10:17:28.638Z,19.19
2022-09-23T10:20:00.490Z,18.97
2022-09-23T10:22:35.303Z,18.71
2022-09-23T10:25:07.953Z,18.51
2022-09-23T10:27:36.980Z,18.69
2022-09-23T10:30:07.576Z,19.07
2022-09-23T10:32:39.068Z,18.93
2022-09-23T10:35:09.160Z,19.01
2022-09-23T10:37:41.664Z,19.54
2022-09-23T10:40:41.314Z,19.98
2022-09-23T10:43:47.756Z,19.94
2022-09-23T10:46:41.863Z,20.03
2022-09-23T10:49:29.246Z,20.45
2022-09-23T10:52:00.926Z,20.87
2022-09-23T10:54:31.866Z,21.09
2022-09-23T10:57:40.798Z,21.13
2022-09-23T11:00:28.125Z,20.74
2022-09-23T11:02:59.681Z,20.43
2022-09-23T11:05:32.800Z,20.24
2022-09-23T11:08:01.462Z,20.25
2022-09-23T11:10:46.563Z,20.53
2022-09-23T11:13:30.787Z,20.81
2022-09-23T11:16:08.946Z,21.00
2022-09-23T11:18:56.430Z,21.10
2022-09-23T11:21:30.954Z,21.26
2022-09-23T11:24:02.216Z,21.14
2022-09-23T11:26:53.257Z,21.26
2022-09-23T11:29:21.478Z,21.23
2022-09-23T11:32:02.237Z,20.99
2022-09-23T11:35:00.442Z,20.55
2022-09-23T11:37:32.612Z,19.93
2022-09-23T11:40:03.863Z,19.60
2022-09-23T11:42:37.052Z,19.48
2022-09-23T11:45:38.079Z,19.62
2022-09-23T11:48:12.113Z,19.70
2022-09-23T11:50:45.104Z,19.44
2022-09-23T11:53:19.115Z,19.25
2022-09-23T11:55:57.310Z,19.19
2022-09-23T12:01:31.424Z,19.83
2022-09-23T12:04:19.049Z,20.47
2022-09-23T12:06:50.251Z,20.81
2022-09-23T12:09:47.289Z,20.63
2022-09-23T12:12:13.730Z,20.73
2022-09-23T12:14:42.929Z,20.72
2022-09-23T12:17:20.628Z,20.90
2022-09-23T12:19:58.433Z,21.04
2022-09-23T12:22:27.423Z,20.97
2022-09-23T12:25:08.707Z,20.65
2022-09-23T12:27:39.856Z,20.37
2022-09-23T12:30:23.937Z,19.93
2022-09-23T12:32:52.694Z,20.25
2022-09-23T12:35:22.424Z,20.76
2022-09-23T12:37:51.283Z,21.32
2022-09-23T12:40:34.903Z,21.95
2022-09-23T12:43:03.930Z,22.39
2022-09-23T12:45:34.054Z,23.02
2022-09-23T12:48:16.153Z,23.67
2022-09-23T12:50:48.053Z,23.77
2022-09-23T12:53:35.338Z,23.06
2022-09-23T12:56:17.840Z,22.75
2022-09-23T12:58:49.405Z,23.09
2022-09-23T13:01:22.723Z,24.17
2022-09-23T13:04:14.419Z,25.29
2022-09-23T13:06:47.315Z,26.12
2022-09-23T13:09:20.611Z,26.07
2022-09-23T13:11:49.301Z,26.15
2022-09-23T13:14:27.251Z,25.59
2022-09-23T13:16:58.602Z,25.08
2022-09-23T13:19:26.954Z,25.35
2022-09-23T13:22:09.435Z,24.81
2022-09-23T13:24:45.413Z,24.04
2022-09-23T13:27:16.659Z,23.15
2022-09-23T13:29:56.104Z,22.14
2022-09-23T13:32:29.897Z,21.70
2022-09-23T13:35:07.291Z,22.25
2022-09-23T13:37:37.716Z,23.35
2022-09-23T13:40:16.496Z,24.45
2022-09-23T13:42:47.603Z,25.56
2022-09-23T13:45:17.501Z,26.10
2022-09-23T13:47:47.001Z,25.96
2022-09-23T13:50:20.102Z,25.18
2022-09-23T13:52:53.205Z,24.47
2022-09-23T13:55:25.667Z,23.88
2022-09-23T13:57:58.117Z,24.02
2022-09-23T14:00:26.727Z,23.59
2022-09-23T14:02:55.723Z,22.96
2022-09-23T14:05:25.173Z,22.46
2022-09-23T14:07:55.382Z,22.32
2022-09-23T14:10:25.167Z,22.29
2022-09-23T14:12:54.676Z,22.28
2022-09-23T14:15:23.463Z,21.94
2022-09-23T14:18:02.287Z,21.61
2022-09-23T14:20:30.859Z,21.41
2022-09-23T14:23:12.260Z,21.19
2022-09-23T14:25:42.584Z,20.67
2022-09-23T14:28:18.543Z,20.00
2022-09-23T14:30:48.483Z,19.37
2022-09-23T14:33:24.623Z,18.69
2022-09-23T14:35:54.835Z,18.03
2022-09-23T14:38:46.476Z,17.50
2022-09-23T14:41:24.183Z,16.96
2022-09-23T14:43:57.893Z,16.56
2022-09-23T14:46:28.100Z,16.21
2022-09-23T14:49:11.924Z,15.91
2022-09-23T14:51:40.424Z,15.60
2022-09-23T14:54:25.373Z,15.36
2022-09-23T14:56:55.002Z,15.12
2022-09-23T14:59:25.958Z,14.93
2022-09-23T15:01:55.040Z,14.77
2022-09-23T15:04:23.129Z,14.61
2022-09-23T15:06:54.667Z,14.50
2022-09-23T15:09:25.473Z,14.39
2022-09-23T15:11:57.570Z,14.28
2022-09-23T15:14:37.779Z,14.21
2022-09-23T15:17:14.607Z,14.16
2022-09-23T15:19:43.373Z,14.10
2022-09-23T15:22:13.213Z,14.06
2022-09-23T15:24:45.560Z,14.03
2022-09-23T15:27:31.905Z,13.94
2022-09-23T15:30:20.144Z,13.81
2022-09-23T15:32:48.715Z,13.68
2022-09-23T15:35:21.888Z,13.60
2022-09-23T15:37:51.784Z,13.62
2022-09-23T15:40:21.230Z,13.61
2022-09-23T15:42:53.502Z,13.55
2022-09-23T15:45:28.167Z,13.41
2022-09-23T15:47:59.168Z,13.19
2022-09-23T15:50:28.983Z,12.97
2022-09-23T15:52:57.567Z,12.75
2022-09-23T15:55:26.130Z,12.56
2022-09-23T15:57:54.429Z,12.35
2022-09-23T16:00:22.678Z,12.16
2022-09-23T16:02:52.076Z,12.04
2022-09-23T16:05:26.760Z,11.95
2022-09-23T16:07:55.320Z,11.94
2022-09-23T16:10:23.803Z,12.00
2022-09-23T16:12:53.972Z,12.08
2022-09-23T16:15:23.434Z,12.19
2022-09-23T16:17:51.811Z,12.30
2022-09-23T16:20:20.093Z,12.40
2022-09-23T16:22:52.769Z,12.50
2022-09-23T16:25:22.816Z,12.58
2022-09-23T16:27:55.614Z,12.62
2022-09-23T16:30:27.532Z,12.55
2022-09-23T16:32:56.118Z,12.40
2022-09-23T16:35:25.931Z,12.29
2022-09-23T16:37:54.569Z,12.26
2022-09-23T16:40:23.975Z,12.27
2022-09-23T16:42:54.747Z,12.28
2022-09-23T16:45:23.466Z,12.28
2022-09-23T16:47:52.341Z,12.31
2022-09-23T16:50:23.016Z,12.35
2022-09-23T16:52:55.035Z,12.40
2022-09-23T16:55:25.139Z,12.45
2022-09-23T16:57:56.815Z,12.48
2022-09-23T17:00:43.914Z,12.50
2022-09-23T17:03:32.383Z,12.46
2022-09-23T17:06:03.392Z,12.47
2022-09-23T17:08:34.571Z,12.45
2022-09-23T17:11:03.331Z,12.40
2022-09-23T17:13:32.659Z,12.33
2022-09-23T17:16:01.320Z,12.20
2022-09-23T17:18:30.342Z,12.06
2022-09-23T17:20:59.999Z,11.97
2022-09-23T17:23:29.257Z,11.92
2022-09-23T17:25:58.448Z,11.85
2022-09-23T17:28:27.034Z,11.75
2022-09-23T17:30:57.803Z,11.61
2022-09-23T17:33:27.451Z,11.44
2022-09-23T17:35:57.010Z,11.26
2022-09-23T17:38:29.137Z,11.08
2022-09-23T17:40:59.655Z,10.95
2022-09-23T17:43:29.293Z,10.84
2022-09-23T17:46:01.465Z,10.79
2022-09-23T17:48:32.950Z,10.76
2022-09-23T17:51:08.839Z,10.70
2022-09-23T17:53:38.889Z,10.61
2022-09-23T17:56:13.518Z,10.57
2022-09-23T17:58:42.508Z,10.57
2022-09-23T18:01:12.014Z,10.59
2022-09-23T18:03:43.875Z,10.61
2022-09-23T18:06:14.093Z,10.60
2022-09-23T18:08:43.300Z,10.53
2022-09-23T18:11:12.804Z,10.47
2022-09-23T18:13:41.489Z,10.41
2022-09-23T18:16:09.838Z,10.38
2022-09-23T18:18:38.577Z,10.37
2022-09-23T18:21:07.964Z,10.36
2022-09-23T18:23:37.568Z,10.35
2022-09-23T18:26:13.013Z,10.31
2022-09-23T18:28:42.457Z,10.29
2022-09-23T18:31:11.477Z,10.27
2022-09-23T18:33:40.610Z,10.25
2022-09-23T18:36:09.340Z,10.20
2022-09-23T18:38:37.782Z,10.12
2022-09-23T18:41:07.567Z,10.01
2022-09-23T18:43:41.412Z,9.93
2022-09-23T18:46:15.461Z,9.93
2022-09-23T18:49:03.125Z,9.92
2022-09-23T18:51:32.520Z,9.87
2022-09-23T18:54:02.363Z,9.81
2022-09-23T18:56:37.708Z,9.75
2022-09-23T18:59:07.013Z,9.72
2022-09-23T19:01:35.639Z,9.74
2022-09-23T19:04:04.347Z,9.76
2022-09-23T19:06:33.680Z,9.73
2022-09-23T19:09:02.474Z,9.71
2022-09-23T19:11:31.328Z,9.64
2022-09-23T19:14:01.686Z,9.57
2022-09-23T19:16:32.004Z,9.50
2022-09-23T19:19:01.387Z,9.45
2022-09-23T19:21:30.510Z,9.42
2022-09-23T19:24:04.105Z,9.39
2022-09-23T19:26:37.719Z,9.33
2022-09-23T19:29:08.551Z,9.28
2022-09-23T19:31:40.673Z,9.25
2022-09-23T19:34:13.788Z,9.20
2022-09-23T19:36:43.520Z,9.16
2022-09-23T19:39:23.034Z,9.12
2022-09-23T19:41:52.773Z,9.10
2022-09-23T19:44:20.949Z,9.11
2022-09-23T19:46:55.189Z,9.06
2022-09-23T19:49:25.730Z,9.02
2022-09-23T19:51:56.407Z,9.01
2022-09-23T19:54:27.657Z,8.99
2022-09-23T19:56:56.259Z,8.94
2022-09-23T19:59:26.737Z,8.88
2022-09-23T20:01:55.679Z,8.85
2022-09-23T20:04:24.166Z,8.86
2022-09-23T20:06:52.851Z,8.92
2022-09-23T20:09:21.641Z,8.94
2022-09-23T20:11:50.019Z,8.93
2022-09-23T20:14:20.146Z,8.92
2022-09-23T20:16:48.824Z,8.88
2022-09-23T20:19:17.104Z,8.86
2022-09-23T20:21:45.686Z,8.85
2022-09-23T20:24:14.271Z,8.80
2022-09-23T20:27:01.184Z,8.78
2022-09-23T20:29:30.078Z,8.77
2022-09-23T20:31:59.013Z,8.77
2022-09-23T20:34:31.321Z,8.77
2022-09-23T20:37:00.135Z,8.75
2022-09-23T20:39:28.612Z,8.71
2022-09-23T20:41:57.482Z,8.69
2022-09-23T20:44:25.986Z,8.68
2022-09-23T20:46:54.496Z,8.70
2022-09-23T20:49:23.053Z,8.76
2022-09-23T20:51:51.741Z,8.82
2022-09-23T20:54:20.119Z,8.89
2022-09-23T20:56:48.702Z,8.92
2022-09-23T20:59:18.444Z,8.92
2022-09-23T21:01:46.940Z,8.94
2022-09-23T21:04:15.891Z,8.96
2022-09-23T21:06:44.370Z,8.98
2022-09-23T21:09:12.648Z,8.97
2022-09-23T21:11:41.214Z,8.95
2022-09-23T21:14:09.745Z,8.90
2022-09-23T21:16:38.778Z,8.85
2022-09-23T21:19:10.665Z,8.87
2022-09-23T21:21:39.474Z,8.91
2022-09-23T21:24:36.137Z,8.97
2022-09-23T21:26:56.699Z,9.04
2022-09-23T21:29:24.825Z,9.12
2022-09-23T21:31:53.215Z,9.23
2022-09-23T21:34:21.942Z,9.31
2022-09-23T21:36:50.117Z,9.40
2022-09-23T21:39:18.703Z,9.49
2022-09-23T21:41:47.285Z,9.57
2022-09-23T21:44:16.279Z,9.66
2022-09-23T21:46:44.805Z,9.71
2022-09-23T21:49:13.625Z,9.78
2022-09-23T21:51:41.827Z,9.87
2022-09-23T21:54:16.038Z,9.96
2022-09-23T21:56:44.627Z,10.06
2022-09-23T21:59:13.215Z,10.16
2022-09-23T22:01:44.975Z,10.26
2022-09-23T22:04:15.703Z,10.27
2022-09-23T22:06:44.643Z,10.32
2022-09-23T22:09:14.380Z,10.36
2022-09-23T22:12:01.637Z,10.35
2022-09-23T22:14:31.018Z,10.28
2022-09-23T22:17:00.592Z,10.23
2022-09-23T22:19:35.766Z,10.18
2022-09-23T22:22:08.478Z,10.14
2022-09-23T22:24:36.693Z,10.13
2022-09-23T22:27:05.227Z,10.18
2022-09-23T22:29:52.547Z,10.24
2022-09-23T22:32:39.768Z,10.33
2022-09-23T22:35:09.361Z,10.40
2022-09-23T22:37:38.068Z,10.47
2022-09-23T22:40:07.564Z,10.51
2022-09-23T22:42:36.836Z,10.57
2022-09-23T22:45:06.017Z,10.64
2022-09-23T22:47:37.542Z,10.69
2022-09-23T22:50:07.017Z,10.75
2022-09-23T22:52:35.721Z,10.81
2022-09-23T22:55:05.019Z,10.86
2022-09-23T22:57:33.246Z,10.95
2022-09-23T23:00:02.281Z,11.00
2022-09-23T23:02:31.972Z,11.02
2022-09-23T23:05:00.791Z,11.03
2022-09-23T23:07:29.268Z,11.07
2022-09-23T23:09:58.675Z,11.10
2022-09-23T23:12:26.948Z,11.10
2022-09-23T23:14:55.851Z,11.10
2022-09-23T23:17:24.324Z,11.09
2022-09-23T23:19:52.907Z,11.09
2022-09-23T23:22:21.286Z,11.10
2022-09-23T23:24:50.307Z,11.10
2022-09-23T23:27:18.760Z,11.12
2022-09-23T23:29:47.551Z,11.11
2022-09-23T23:32:17.263Z,11.04
2022-09-23T23:34:45.748Z,11.03
2022-09-23T23:37:17.645Z,11.02
2022-09-23T23:39:48.546Z,11.03
2022-09-23T23:42:17.438Z,11.01
2022-09-23T23:44:45.714Z,10.95
2022-09-23T23:47:14.297Z,10.85
2022-09-23T23:49:42.678Z,10.70
2022-09-23T23:52:10.964Z,10.55
2022-09-23T23:54:39.438Z,10.50
2022-09-23T23:57:08.016Z,10.47
2022-09-23T23:59:36.196Z,10.45
